createdAt,value
2018-03-20T00:01:06.720Z,10.07
2018-03-20T00:03:34.276Z,10.17
2018-03-20T00:06:01.822Z,8.77
2018-03-20T00:08:29.398Z,9.40
2018-03-20T00:10:56.959Z,10.67
2018-03-20T00:13:24.580Z,9.57
2018-03-20T00:15:52.159Z,12.07
2018-03-20T00:18:19.721Z,11.10
2018-03-20T00:20:47.271Z,11.13
2018-03-20T00:23:14.845Z,10.97
2018-03-20T00:25:42.655Z,10.93
2018-03-20T00:28:11.035Z,10.90
2018-03-20T00:30:38.732Z,10.73
2018-03-20T00:33:07.090Z,10.23
2018-03-20T00:35:34.634Z,10.30
2018-03-20T00:38:02.192Z,8.97
2018-03-20T00:40:30.506Z,11.27
2018-03-20T00:42:58.080Z,10.40
2018-03-20T00:45:25.641Z,10.80
2018-03-20T00:47:53.398Z,9.83
2018-03-20T00:50:21.004Z,10.93
2018-03-20T00:52:48.616Z,9.03
2018-03-20T00:55:16.361Z,9.30
2018-03-20T00:57:43.960Z,8.90
2018-03-20T01:00:12.284Z,9.20
2018-03-20T01:02:42.024Z,11.10
2018-03-20T01:05:09.626Z,9.57
2018-03-20T01:07:37.165Z,11.07
2018-03-20T01:10:04.802Z,10.70
2018-03-20T01:12:32.372Z,10.33
2018-03-20T01:14:59.942Z,11.00
2018-03-20T01:17:27.486Z,9.53
2018-03-20T01:19:55.052Z,9.77
2018-03-20T01:22:22.658Z,10.43
2018-03-20T01:24:50.249Z,10.17
2018-03-20T01:27:17.768Z,10.57
2018-03-20T01:29:45.351Z,10.37
2018-03-20T01:32:13.676Z,9.30
2018-03-20T01:34:41.366Z,10.37
2018-03-20T01:37:08.909Z,9.10
2018-03-20T01:39:36.492Z,10.77
2018-03-20T01:42:04.036Z,10.40
2018-03-20T01:44:32.406Z,8.97
2018-03-20T01:47:00.201Z,9.93
2018-03-20T01:49:28.617Z,9.37
2018-03-20T01:51:56.242Z,10.20
2018-03-20T01:54:23.946Z,10.33
2018-03-20T01:56:51.518Z,16.77
2018-03-20T01:59:19.162Z,10.47
2018-03-20T02:01:46.708Z,8.80
2018-03-20T02:04:14.278Z,9.73
2018-03-20T02:06:41.828Z,9.63
2018-03-20T02:09:09.537Z,8.40
2018-03-20T02:11:37.085Z,9.03
2018-03-20T02:14:04.650Z,8.77
2018-03-20T02:16:32.192Z,9.37
2018-03-20T02:18:59.960Z,8.20
2018-03-20T02:21:27.500Z,8.33
2018-03-20T02:23:55.094Z,10.10
2018-03-20T02:26:22.735Z,10.33
2018-03-20T02:28:50.305Z,10.23
2018-03-20T02:31:17.857Z,10.90
2018-03-20T02:33:45.450Z,9.57
2018-03-20T02:36:13.057Z,9.70
2018-03-20T02:38:40.609Z,9.20
2018-03-20T02:41:08.146Z,10.47
2018-03-20T02:43:36.641Z,9.83
2018-03-20T02:46:04.190Z,11.10
2018-03-20T02:48:32.524Z,10.43
2018-03-20T02:51:00.069Z,10.10
2018-03-20T02:53:27.865Z,11.00
2018-03-20T02:55:55.580Z,9.07
2018-03-20T02:58:23.151Z,9.70
2018-03-20T03:00:50.709Z,9.03
2018-03-20T03:03:18.275Z,8.97
2018-03-20T03:05:45.822Z,10.60
2018-03-20T03:08:13.415Z,11.07
2018-03-20T03:10:41.072Z,8.87
2018-03-20T03:13:08.678Z,9.77
2018-03-20T03:15:36.224Z,9.10
2018-03-20T03:18:04.550Z,10.00
2018-03-20T03:20:32.100Z,10.70
2018-03-20T03:22:59.673Z,10.30
2018-03-20T03:25:27.229Z,9.20
2018-03-20T03:27:54.921Z,10.20
2018-03-20T03:30:22.511Z,10.27
2018-03-20T03:32:50.073Z,10.60
2018-03-20T03:35:18.402Z,9.63
2018-03-20T03:37:45.958Z,9.57
2018-03-20T03:40:13.578Z,9.60
2018-03-20T03:42:41.258Z,9.50
2018-03-20T03:45:08.795Z,9.50
2018-03-20T03:47:37.123Z,9.87
2018-03-20T03:50:04.781Z,9.77
2018-03-20T03:52:32.338Z,9.13
2018-03-20T03:54:59.885Z,10.27
2018-03-20T03:57:27.524Z,11.80
2018-03-20T03:59:55.127Z,11.30
2018-03-20T04:02:22.705Z,10.70
2018-03-20T04:04:51.057Z,9.70
2018-03-20T04:07:18.595Z,9.47
2018-03-20T04:09:46.162Z,10.17
2018-03-20T04:12:13.707Z,10.43
2018-03-20T04:14:41.285Z,10.03
2018-03-20T04:17:08.857Z,9.33
2018-03-20T04:19:36.457Z,10.27
2018-03-20T04:22:04.786Z,10.90
2018-03-20T04:24:32.327Z,9.70
2018-03-20T04:26:59.918Z,9.43
2018-03-20T04:29:27.453Z,9.70
2018-03-20T04:31:55.177Z,9.43
2018-03-20T04:34:23.530Z,10.00
2018-03-20T04:36:54.322Z,10.53
2018-03-20T04:39:21.867Z,10.70
2018-03-20T04:41:49.410Z,10.63
2018-03-20T04:44:16.960Z,11.10
2018-03-20T04:46:45.274Z,10.20
2018-03-20T04:49:12.853Z,12.63
2018-03-20T04:51:40.407Z,11.07
2018-03-20T04:54:07.982Z,11.40
2018-03-20T04:56:35.552Z,10.07
2018-03-20T04:59:03.142Z,12.20
2018-03-20T05:01:30.751Z,11.07
2018-03-20T05:03:58.394Z,10.57
2018-03-20T05:06:25.949Z,11.40
2018-03-20T05:08:53.513Z,11.63
2018-03-20T05:11:21.067Z,11.80
2018-03-20T05:13:48.634Z,11.93
2018-03-20T05:16:16.177Z,10.57
2018-03-20T05:18:44.388Z,10.87
2018-03-20T05:21:13.360Z,11.23
2018-03-20T05:23:47.534Z,12.63
2018-03-20T05:26:15.847Z,11.00
2018-03-20T05:28:43.476Z,11.63
2018-03-20T05:31:11.797Z,12.77
2018-03-20T05:33:39.432Z,14.37
2018-03-20T05:36:06.982Z,13.50
2018-03-20T05:38:34.528Z,12.30
2018-03-20T05:41:02.867Z,11.30
2018-03-20T05:43:30.411Z,11.87
2018-03-20T05:45:58.018Z,11.70
2018-03-20T05:48:31.137Z,11.90
2018-03-20T05:51:04.197Z,10.93
2018-03-20T05:53:31.758Z,11.40
2018-03-20T05:55:59.590Z,11.03
2018-03-20T05:58:27.134Z,11.50
2018-03-20T06:00:54.690Z,12.87
2018-03-20T06:03:22.217Z,13.57
2018-03-20T06:05:50.279Z,13.83
2018-03-20T06:08:18.612Z,14.70
2018-03-20T06:10:46.281Z,12.70
2018-03-20T06:13:13.858Z,13.87
2018-03-20T06:15:41.416Z,13.50
2018-03-20T06:18:08.982Z,16.20
2018-03-20T06:20:36.532Z,16.50
2018-03-20T06:23:05.686Z,14.57
2018-03-20T06:25:33.437Z,15.93
2018-03-20T06:28:00.993Z,12.10
2018-03-20T06:30:28.557Z,12.57
2018-03-20T06:32:56.109Z,12.20
2018-03-20T06:35:23.662Z,11.87
2018-03-20T06:37:51.282Z,13.63
2018-03-20T06:40:18.839Z,11.50
2018-03-20T06:42:46.418Z,11.63
2018-03-20T06:45:14.851Z,14.47
2018-03-20T06:47:42.423Z,13.60
2018-03-20T06:50:10.170Z,18.60
2018-03-20T06:52:37.729Z,13.53
2018-03-20T06:55:05.270Z,22.03
2018-03-20T06:57:33.146Z,17.90
2018-03-20T07:00:00.697Z,19.23
2018-03-20T07:02:28.279Z,12.30
2018-03-20T07:04:55.867Z,8.20
2018-03-20T07:07:23.411Z,12.90
2018-03-20T07:09:51.214Z,10.70
2018-03-20T07:12:18.758Z,10.17
2018-03-20T07:14:46.348Z,10.60
2018-03-20T07:17:13.892Z,10.17
2018-03-20T07:19:42.235Z,10.37
2018-03-20T07:22:09.777Z,9.40
2018-03-20T07:24:37.333Z,9.80
2018-03-20T07:27:04.871Z,10.30
2018-03-20T07:29:32.645Z,10.90
2018-03-20T07:32:00.181Z,11.20
2018-03-20T07:34:27.783Z,12.67
2018-03-20T07:36:55.309Z,12.53
2018-03-20T07:39:22.861Z,8.17
2018-03-20T07:41:51.184Z,8.77
2018-03-20T07:44:18.733Z,11.10
2018-03-20T07:46:46.266Z,9.40
2018-03-20T07:49:13.821Z,8.40
2018-03-20T07:51:41.402Z,8.33
2018-03-20T07:54:08.979Z,4.30
2018-03-20T07:56:36.534Z,11.50
2018-03-20T07:59:04.082Z,11.80
2018-03-20T08:01:31.649Z,9.10
2018-03-20T08:03:59.192Z,9.50
2018-03-20T08:06:26.781Z,9.27
2018-03-20T08:08:54.317Z,7.90
2018-03-20T08:11:21.889Z,9.60
2018-03-20T08:13:50.989Z,8.70
2018-03-20T08:16:18.635Z,10.73
2018-03-20T08:18:46.472Z,9.40
2018-03-20T08:21:14.856Z,10.50
2018-03-20T08:23:42.397Z,8.77
2018-03-20T08:26:10.725Z,9.00
2018-03-20T08:28:38.353Z,8.53
2018-03-20T08:31:05.994Z,8.60
2018-03-20T08:33:35.435Z,10.37
2018-03-20T08:36:02.977Z,9.07
2018-03-20T08:38:32.092Z,8.83
2018-03-20T08:40:59.631Z,8.70
2018-03-20T08:43:27.204Z,7.80
2018-03-20T08:45:54.776Z,9.17
2018-03-20T08:48:22.331Z,8.60
2018-03-20T08:50:49.935Z,8.73
2018-03-20T08:53:17.497Z,9.80
2018-03-20T08:55:45.111Z,8.97
2018-03-20T08:58:12.973Z,8.97
2018-03-20T09:00:40.540Z,8.37
2018-03-20T09:03:08.452Z,7.37
2018-03-20T09:05:36.033Z,8.33
2018-03-20T09:08:04.252Z,7.20
2018-03-20T09:10:31.969Z,7.03
2018-03-20T09:12:59.684Z,7.60
2018-03-20T09:15:27.234Z,7.37
2018-03-20T09:17:55.021Z,6.57
2018-03-20T09:20:23.205Z,5.40
2018-03-20T09:22:50.793Z,8.00
2018-03-20T09:25:19.110Z,8.80
2018-03-20T09:27:46.695Z,7.60
2018-03-20T09:30:14.256Z,9.57
2018-03-20T09:32:43.621Z,5.67
2018-03-20T09:35:11.156Z,8.50
2018-03-20T09:37:39.516Z,6.97
2018-03-20T09:40:07.079Z,8.90
2018-03-20T09:42:35.711Z,8.30
2018-03-20T09:45:03.406Z,7.73
2018-03-20T09:47:30.969Z,9.10
2018-03-20T09:49:59.287Z,8.93
2018-03-20T09:52:26.888Z,6.33
2018-03-20T09:54:55.446Z,7.63
2018-03-20T09:57:23.259Z,7.47
2018-03-20T09:59:50.870Z,8.63
2018-03-20T10:02:18.464Z,7.97
2018-03-20T10:04:46.941Z,6.30
2018-03-20T10:07:14.469Z,8.63
2018-03-20T10:09:42.023Z,7.60
2018-03-20T10:12:09.830Z,5.90
2018-03-20T10:14:38.197Z,7.70
2018-03-20T10:17:05.733Z,7.87
2018-03-20T10:19:33.324Z,7.80
2018-03-20T10:22:00.888Z,10.10
2018-03-20T10:24:28.446Z,10.00
2018-03-20T10:26:56.704Z,9.03
2018-03-20T10:29:24.448Z,6.30
2018-03-20T10:31:51.977Z,7.00
2018-03-20T10:34:19.785Z,3.80
2018-03-20T10:36:47.323Z,8.57
2018-03-20T10:39:15.098Z,6.47
2018-03-20T10:41:42.639Z,8.37
2018-03-20T10:44:10.222Z,9.00
2018-03-20T10:46:37.808Z,7.63
2018-03-20T10:49:06.279Z,9.00
2018-03-20T10:51:34.740Z,7.73
2018-03-20T10:54:02.307Z,8.40
2018-03-20T10:56:29.861Z,7.47
2018-03-20T10:58:57.389Z,8.37
2018-03-20T11:01:32.582Z,5.27
2018-03-20T11:04:00.074Z,3.37
2018-03-20T11:06:28.821Z,7.33
2018-03-20T11:08:56.344Z,8.20
2018-03-20T11:11:25.230Z,7.17
2018-03-20T11:13:52.827Z,9.10
2018-03-20T11:16:20.396Z,8.37
2018-03-20T11:18:48.021Z,7.20
2018-03-20T11:21:15.603Z,7.53
2018-03-20T11:23:43.145Z,8.70
2018-03-20T11:26:10.701Z,5.10
2018-03-20T11:28:38.467Z,9.00
2018-03-20T11:31:06.061Z,7.43
2018-03-20T11:33:33.605Z,7.67
2018-03-20T11:36:01.174Z,8.30
2018-03-20T11:38:28.723Z,6.80
2018-03-20T11:40:56.286Z,7.77
2018-03-20T11:43:23.824Z,5.63
2018-03-20T11:45:51.401Z,4.90
2018-03-20T11:48:18.948Z,9.53
2018-03-20T11:50:46.510Z,7.87
2018-03-20T11:53:14.042Z,8.67
2018-03-20T11:55:41.604Z,7.13
2018-03-20T11:58:09.248Z,7.63
2018-03-20T12:00:37.589Z,10.00
2018-03-20T12:03:05.177Z,9.60
2018-03-20T12:05:33.531Z,7.67
2018-03-20T12:08:13.020Z,8.87
2018-03-20T12:10:40.621Z,7.43
2018-03-20T12:13:08.164Z,4.63
2018-03-20T12:15:35.712Z,9.80
2018-03-20T12:18:03.261Z,9.27
2018-03-20T12:20:30.789Z,4.63
2018-03-20T12:22:58.488Z,9.50
2018-03-20T12:25:26.040Z,9.67
2018-03-20T12:27:53.600Z,8.97
2018-03-20T12:30:21.165Z,9.33
2018-03-20T12:32:48.732Z,8.00
2018-03-20T12:35:16.298Z,8.70
2018-03-20T12:37:43.897Z,5.80
2018-03-20T12:40:12.613Z,8.50
2018-03-20T12:42:40.964Z,9.70
2018-03-20T12:45:08.522Z,9.27
2018-03-20T12:47:36.212Z,4.63
2018-03-20T12:50:04.519Z,6.93
2018-03-20T12:52:32.093Z,7.77
2018-03-20T12:55:00.447Z,6.03
2018-03-20T12:57:28.217Z,7.20
2018-03-20T12:59:55.980Z,7.53
2018-03-20T13:02:23.562Z,8.40
2018-03-20T13:04:51.111Z,8.73
2018-03-20T13:07:18.663Z,5.00
2018-03-20T13:09:46.205Z,8.77
2018-03-20T13:12:13.756Z,10.00
2018-03-20T13:14:41.293Z,8.50
2018-03-20T13:17:09.630Z,8.03
2018-03-20T13:19:37.170Z,9.17
2018-03-20T13:22:04.904Z,8.63
2018-03-20T13:24:33.206Z,10.40
2018-03-20T13:27:00.853Z,11.50
2018-03-20T13:29:28.430Z,11.23
2018-03-20T13:31:56.102Z,11.40
2018-03-20T13:34:23.660Z,15.30
2018-03-20T13:36:51.239Z,13.60
2018-03-20T13:39:18.783Z,12.30
2018-03-20T13:41:46.351Z,12.43
2018-03-20T13:44:13.900Z,9.00
2018-03-20T13:46:41.504Z,12.97
2018-03-20T13:49:09.098Z,11.03
2018-03-20T13:51:36.608Z,9.40
2018-03-20T13:54:04.137Z,7.13
2018-03-20T13:56:31.686Z,9.97
2018-03-20T13:58:59.231Z,12.10
2018-03-20T14:01:26.783Z,11.53
2018-03-20T14:03:54.535Z,10.33
2018-03-20T14:06:22.974Z,8.13
2018-03-20T14:08:50.555Z,9.33
2018-03-20T14:11:19.052Z,11.93
2018-03-20T14:13:46.587Z,16.10
2018-03-20T14:16:14.156Z,16.97
2018-03-20T14:18:41.715Z,20.10
2018-03-20T14:21:09.279Z,13.70
2018-03-20T14:23:36.830Z,17.83
2018-03-20T14:26:04.399Z,18.10
2018-03-20T14:28:32.705Z,17.97
2018-03-20T14:31:00.258Z,16.90
2018-03-20T14:33:28.559Z,16.67
2018-03-20T14:35:56.331Z,18.27
2018-03-20T14:38:23.873Z,15.07
2018-03-20T14:40:51.479Z,17.17
2018-03-20T14:43:19.060Z,16.13
2018-03-20T14:45:46.597Z,17.60
2018-03-20T14:48:14.190Z,12.67
2018-03-20T14:50:41.745Z,14.00
2018-03-20T14:53:10.082Z,17.20
2018-03-20T14:55:38.517Z,8.53
2018-03-20T14:58:06.846Z,17.13
2018-03-20T15:00:34.385Z,18.03
2018-03-20T15:03:01.961Z,14.87
2018-03-20T15:05:29.517Z,16.10
2018-03-20T15:07:57.226Z,16.07
2018-03-20T15:10:25.542Z,18.23
2018-03-20T15:12:53.234Z,18.93
2018-03-20T15:15:20.790Z,19.70
2018-03-20T15:17:48.357Z,20.13
2018-03-20T15:20:16.133Z,22.77
2018-03-20T15:22:43.706Z,18.03
2018-03-20T15:25:11.466Z,24.90
2018-03-20T15:27:39.784Z,21.47
2018-03-20T15:30:07.463Z,23.67
2018-03-20T15:32:35.026Z,18.50
2018-03-20T15:35:02.620Z,18.87
2018-03-20T15:37:30.178Z,18.40
2018-03-20T15:39:58.566Z,21.37
2018-03-20T15:42:26.117Z,15.43
2018-03-20T15:44:53.721Z,19.33
2018-03-20T15:47:21.297Z,20.40
2018-03-20T15:49:48.883Z,20.70
2018-03-20T15:52:16.435Z,18.47
2018-03-20T15:54:44.249Z,18.73
2018-03-20T15:57:11.866Z,19.13
2018-03-20T15:59:39.424Z,16.50
2018-03-20T16:02:06.953Z,18.17
2018-03-20T16:04:34.545Z,18.63
2018-03-20T16:07:02.135Z,19.47
2018-03-20T16:09:30.458Z,16.70
2018-03-20T16:11:58.018Z,17.90
2018-03-20T16:14:25.606Z,19.70
2018-03-20T16:16:54.187Z,19.17
2018-03-20T16:19:21.751Z,18.87
2018-03-20T16:21:49.693Z,17.17
2018-03-20T16:24:17.289Z,15.90
2018-03-20T16:26:44.854Z,16.20
2018-03-20T16:29:13.182Z,16.30
2018-03-20T16:31:40.776Z,17.67
2018-03-20T16:34:08.318Z,14.23
2018-03-20T16:36:36.157Z,17.70
2018-03-20T16:39:03.696Z,11.87
2018-03-20T16:41:31.299Z,16.97
2018-03-20T16:43:58.881Z,15.27
2018-03-20T16:46:26.458Z,18.13
2018-03-20T16:48:54.005Z,12.67
2018-03-20T16:51:21.613Z,18.37
2018-03-20T16:53:49.163Z,16.20
2018-03-20T16:56:16.934Z,16.97
2018-03-20T16:58:44.517Z,16.77
2018-03-20T17:01:12.337Z,17.77
2018-03-20T17:03:40.944Z,18.07
2018-03-20T17:06:08.549Z,31.40
2018-03-20T17:08:36.097Z,11.23
2018-03-20T17:11:03.693Z,25.73
2018-03-20T17:13:31.284Z,26.53
2018-03-20T17:15:58.860Z,28.20
2018-03-20T17:18:26.393Z,23.30
2018-03-20T17:20:53.965Z,22.20
2018-03-20T17:23:21.557Z,20.33
2018-03-20T17:25:49.205Z,20.40
2018-03-20T17:28:16.758Z,18.80
2018-03-20T17:30:44.486Z,22.77
2018-03-20T17:33:12.032Z,20.77
2018-03-20T17:35:39.592Z,23.80
2018-03-20T17:38:07.906Z,19.47
2018-03-20T17:40:35.515Z,22.90
2018-03-20T17:43:03.185Z,22.57
2018-03-20T17:45:31.508Z,22.73
2018-03-20T17:47:59.092Z,18.83
2018-03-20T17:50:26.642Z,24.43
2018-03-20T17:52:54.208Z,23.10
2018-03-20T17:55:21.946Z,22.53
2018-03-20T17:57:49.512Z,23.30
2018-03-20T18:00:17.167Z,22.87
2018-03-20T18:02:44.731Z,23.17
2018-03-20T18:05:12.510Z,25.63
2018-03-20T18:07:40.073Z,23.87
2018-03-20T18:10:07.676Z,22.77
2018-03-20T18:12:36.016Z,23.10
2018-03-20T18:15:03.586Z,25.33
2018-03-20T18:17:31.146Z,25.50
2018-03-20T18:19:58.694Z,25.20
2018-03-20T18:22:26.393Z,26.37
2018-03-20T18:24:54.742Z,25.70
2018-03-20T18:27:22.307Z,14.23
2018-03-20T18:29:49.984Z,28.13
2018-03-20T18:32:18.314Z,27.10
2018-03-20T18:34:45.870Z,27.23
2018-03-20T18:37:13.414Z,25.33
2018-03-20T18:39:41.031Z,26.93
2018-03-20T18:42:08.571Z,25.97
2018-03-20T18:44:36.174Z,27.30
2018-03-20T18:47:04.490Z,23.80
2018-03-20T18:49:32.462Z,22.33
2018-03-20T18:52:00.017Z,26.00
2018-03-20T18:54:27.575Z,19.00
2018-03-20T18:56:55.164Z,11.17
2018-03-20T18:59:22.738Z,22.80
2018-03-20T19:01:50.369Z,25.80
2018-03-20T19:04:18.077Z,21.40
2018-03-20T19:06:46.423Z,22.40
2018-03-20T19:09:14.116Z,22.20
2018-03-20T19:11:41.698Z,25.93
2018-03-20T19:14:09.250Z,23.93
2018-03-20T19:16:37.138Z,22.33
2018-03-20T19:19:04.733Z,10.17
2018-03-20T19:21:32.439Z,20.70
2018-03-20T19:23:59.977Z,17.60
2018-03-20T19:26:28.321Z,19.40
2018-03-20T19:28:55.888Z,17.67
2018-03-20T19:31:23.500Z,16.37
2018-03-20T19:33:51.065Z,21.20
2018-03-20T19:36:18.715Z,19.13
2018-03-20T19:38:46.280Z,19.27
2018-03-20T19:41:13.962Z,18.40
2018-03-20T19:43:41.533Z,16.50
2018-03-20T19:46:09.153Z,17.17
2018-03-20T19:48:37.559Z,18.90
2018-03-20T19:51:05.144Z,18.70
2018-03-20T19:53:32.734Z,15.87
2018-03-20T19:56:00.268Z,16.23
2018-03-20T19:58:27.829Z,12.60
2018-03-20T20:00:55.406Z,13.47
2018-03-20T20:03:23.017Z,16.07
2018-03-20T20:05:50.616Z,16.47
2018-03-20T20:08:18.193Z,8.03
2018-03-20T20:10:47.158Z,7.40
2018-03-20T20:13:14.792Z,17.03
2018-03-20T20:15:42.357Z,14.20
2018-03-20T20:18:09.930Z,12.63
2018-03-20T20:20:38.409Z,13.87
2018-03-20T20:23:06.072Z,11.60
2018-03-20T20:25:33.692Z,13.73
2018-03-20T20:28:01.510Z,13.40
2018-03-20T20:30:29.247Z,13.07
2018-03-20T20:32:56.841Z,11.57
2018-03-20T20:35:25.150Z,11.90
2018-03-20T20:37:52.745Z,13.07
2018-03-20T20:40:20.349Z,9.47
2018-03-20T20:42:47.932Z,10.70
2018-03-20T20:45:15.547Z,11.13
2018-03-20T20:47:43.831Z,10.20
2018-03-20T20:50:11.382Z,9.27
2018-03-20T20:52:38.941Z,8.83
2018-03-20T20:55:06.531Z,9.10
2018-03-20T20:57:34.901Z,5.20
2018-03-20T21:00:02.453Z,5.50
2018-03-20T21:02:29.992Z,4.57
2018-03-20T21:04:57.670Z,6.93
2018-03-20T21:07:25.245Z,4.43
2018-03-20T21:09:53.061Z,3.80
2018-03-20T21:12:20.618Z,4.97
2018-03-20T21:14:48.186Z,3.70
2018-03-20T21:17:15.738Z,4.13
2018-03-20T21:19:43.301Z,3.57
2018-03-20T21:22:10.861Z,3.43
2018-03-20T21:24:38.439Z,4.33
2018-03-20T21:27:05.989Z,3.90
2018-03-20T21:29:33.772Z,3.47
2018-03-20T21:32:01.313Z,3.10
2018-03-20T21:34:28.881Z,4.50
2018-03-20T21:36:56.417Z,3.07
2018-03-20T21:39:23.978Z,3.70
2018-03-20T21:41:52.663Z,3.70
2018-03-20T21:44:20.385Z,2.80
2018-03-20T21:46:48.713Z,3.67
2018-03-20T21:49:16.273Z,3.87
2018-03-20T21:51:43.888Z,3.67
2018-03-20T21:54:11.450Z,2.60
2018-03-20T21:56:39.790Z,3.63
2018-03-20T21:59:07.378Z,2.20
2018-03-20T22:01:35.741Z,2.40
2018-03-20T22:04:03.274Z,2.70
2018-03-20T22:06:30.862Z,2.70
2018-03-20T22:08:58.398Z,1.60
2018-03-20T22:11:25.957Z,2.97
2018-03-20T22:13:53.789Z,2.07
2018-03-20T22:16:21.617Z,2.70
2018-03-20T22:18:49.137Z,3.70
2018-03-20T22:21:16.823Z,2.67
2018-03-20T22:23:44.361Z,2.80
2018-03-20T22:26:11.933Z,3.13
2018-03-20T22:28:39.714Z,2.43
2018-03-20T22:31:07.387Z,2.60
2018-03-20T22:33:35.051Z,3.80
2018-03-20T22:36:03.377Z,4.23
2018-03-20T22:38:30.916Z,3.03
2018-03-20T22:40:58.737Z,4.50
2018-03-20T22:43:26.335Z,3.83
2018-03-20T22:45:53.964Z,3.83
2018-03-20T22:48:21.628Z,3.10
2018-03-20T22:50:49.217Z,3.67
2018-03-20T22:53:16.786Z,3.23
2018-03-20T22:55:44.367Z,3.47
2018-03-20T22:58:11.917Z,2.77
2018-03-20T23:00:39.593Z,2.53
2018-03-20T23:03:07.120Z,3.07
2018-03-20T23:05:34.677Z,3.10
2018-03-20T23:08:02.216Z,1.40
2018-03-20T23:10:29.936Z,1.20
2018-03-20T23:12:57.482Z,2.30
2018-03-20T23:15:25.047Z,3.33
2018-03-20T23:17:52.613Z,2.67
2018-03-20T23:20:20.169Z,2.50
2018-03-20T23:22:47.713Z,2.10
2018-03-20T23:25:15.277Z,2.67
2018-03-20T23:27:42.987Z,2.50
2018-03-20T23:30:10.677Z,2.90
2018-03-20T23:32:38.981Z,2.40
2018-03-20T23:35:06.548Z,2.70
2018-03-20T23:37:34.138Z,3.00
2018-03-20T23:40:01.708Z,2.80
2018-03-20T23:42:29.311Z,3.00
2018-03-20T23:44:56.873Z,2.97
2018-03-20T23:47:24.423Z,2.80
2018-03-20T23:49:51.979Z,3.03
2018-03-20T23:52:19.547Z,3.97
2018-03-20T23:54:47.185Z,4.10
2018-03-20T23:57:14.747Z,3.60
2018-03-20T23:59:43.073Z,3.00
